KSFZ/SFZ METAR and TAF weather

Enter ICAO airport designator
Station Type Date Time Source
KSFZ METAR 2021/09/24 05:56 UTC NOAA

KSFZ 240556Z AUTO 16007KT 120V190 10SM OVC010 22/21 A3005 RMK AO2 SLP177 6//// T02170206 10217 20211 57010 PNO $


Station Type Date Time Source
KSFZ Decoded METAR 2021/09/24 05:56 UTC NOAA

Pawtucket, North Central State Airport, RI, United States (KSFZ) 41-55N 071-30W
Sep 24, 2021 - 01:56 AM EDT / 2021.09.24 0556 UTC
Wind: from the SSE (160 degrees) at 8 MPH (7 KT) (direction variable):0
Visibility: 10 mile(s):0
Sky conditions: overcast
Temperature: 71.1 F (21.7 C)
Dew Point: 69.1 F (20.6 C)
Relative Humidity: 93%
Pressure (altimeter): 30.05 in. Hg (1017 hPa)
Pressure tendency: 0.03 inches (1.0 hPa) lower than three hours ago
ob: KSFZ 240556Z AUTO 16007KT 120V190 10SM OVC010 22/21 A3005 RMK AO2 SLP177 6//// T02170206 10217 20211 57010 PNO
cycle: 6

Station Type Date Time Source
KSFZ TAF UTC NOAA

Error!

Example: see airport list